createdAt,value
2018-09-20T00:01:43.231Z,11.67
2018-09-20T00:04:11.286Z,14.07
2018-09-20T00:06:40.068Z,13.03
2018-09-20T00:09:08.392Z,12.27
2018-09-20T00:11:36.675Z,13.27
2018-09-20T00:14:04.920Z,10.90
2018-09-20T00:16:33.068Z,12.93
2018-09-20T00:19:01.217Z,15.03
2018-09-20T00:21:29.449Z,13.47
2018-09-20T00:23:57.771Z,12.40
2018-09-20T00:26:26.013Z,12.80
2018-09-20T00:28:54.125Z,15.27
2018-09-20T00:31:22.722Z,12.67
2018-09-20T00:33:50.826Z,12.63
2018-09-20T00:36:19.020Z,13.77
2018-09-20T00:38:47.217Z,14.87
2018-09-20T00:41:15.391Z,13.27
2018-09-20T00:43:43.626Z,13.50
2018-09-20T00:46:11.754Z,13.03
2018-09-20T00:48:39.873Z,12.50
2018-09-20T00:51:08.070Z,16.43
2018-09-20T00:53:36.138Z,15.40
2018-09-20T00:56:04.547Z,14.50
2018-09-20T00:58:32.739Z,18.57
2018-09-20T01:01:00.902Z,17.30
2018-09-20T01:03:29.033Z,15.43
2018-09-20T01:05:57.123Z,18.50
2018-09-20T01:08:25.352Z,14.47
2018-09-20T01:10:53.742Z,14.93
2018-09-20T01:13:22.438Z,14.30
2018-09-20T01:15:51.052Z,15.73
2018-09-20T01:18:19.328Z,13.53
2018-09-20T01:20:47.804Z,15.77
2018-09-20T01:25:49.835Z,17.30
2018-09-20T01:28:18.006Z,17.37
2018-09-20T01:30:46.369Z,13.70
2018-09-20T01:33:14.525Z,13.33
2018-09-20T01:35:42.732Z,12.50
2018-09-20T01:38:10.864Z,14.33
2018-09-20T01:40:39.038Z,12.87
2018-09-20T01:43:07.233Z,13.63
2018-09-20T01:45:35.419Z,12.80
2018-09-20T01:48:03.655Z,13.53
2018-09-20T01:50:31.927Z,12.53
2018-09-20T01:53:00.191Z,12.00
2018-09-20T01:55:28.470Z,13.03
2018-09-20T01:57:56.751Z,12.90
2018-09-20T02:00:25.039Z,14.43
2018-09-20T02:02:53.296Z,13.70
2018-09-20T02:05:21.801Z,17.63
2018-09-20T02:07:50.124Z,12.73
2018-09-20T02:10:18.630Z,13.13
2018-09-20T02:12:47.231Z,13.60
2018-09-20T02:15:15.553Z,15.37
2018-09-20T02:17:43.696Z,14.63
2018-09-20T02:20:11.978Z,14.80
2018-09-20T02:22:40.473Z,15.07
2018-09-20T02:25:08.869Z,19.83
2018-09-20T02:27:37.020Z,15.00
2018-09-20T02:30:05.558Z,15.47
2018-09-20T02:32:33.716Z,15.77
2018-09-20T02:35:02.271Z,14.07
2018-09-20T02:37:30.931Z,15.40
2018-09-20T02:39:59.080Z,14.20
2018-09-20T02:42:27.195Z,14.67
2018-09-20T02:44:55.288Z,16.20
2018-09-20T02:47:23.527Z,16.00
2018-09-20T02:49:51.991Z,17.70
2018-09-20T02:52:20.155Z,14.07
2018-09-20T02:54:48.771Z,18.33
2018-09-20T02:57:16.976Z,17.83
2018-09-20T02:59:45.191Z,18.50
2018-09-20T03:02:13.663Z,16.10
2018-09-20T03:04:41.980Z,14.53
2018-09-20T03:07:10.408Z,14.90
2018-09-20T03:09:38.700Z,17.27
2018-09-20T03:12:06.972Z,18.57
2018-09-20T03:14:35.226Z,21.80
2018-09-20T03:17:03.446Z,20.93
2018-09-20T03:19:31.798Z,19.30
2018-09-20T03:22:00.046Z,22.40
2018-09-20T03:24:28.209Z,20.73
2018-09-20T03:26:56.360Z,20.23
2018-09-20T03:29:24.653Z,21.60
2018-09-20T03:31:53.225Z,19.60
2018-09-20T03:34:21.246Z,17.27
2018-09-20T03:36:49.337Z,16.77
2018-09-20T03:39:17.758Z,16.80
2018-09-20T03:41:46.367Z,16.57
2018-09-20T03:44:14.846Z,21.20
2018-09-20T03:46:42.976Z,17.33
2018-09-20T03:49:11.284Z,17.73
2018-09-20T03:51:39.436Z,15.93
2018-09-20T03:54:07.523Z,18.47
2018-09-20T03:56:36.029Z,19.27
2018-09-20T03:59:04.235Z,18.33
2018-09-20T04:01:32.336Z,16.70
2018-09-20T04:04:00.476Z,16.20
2018-09-20T04:06:28.648Z,18.30
2018-09-20T04:08:56.827Z,15.53
2018-09-20T04:11:24.960Z,16.27
2018-09-20T04:13:53.388Z,15.97
2018-09-20T04:16:21.660Z,17.10
2018-09-20T04:18:49.878Z,14.30
2018-09-20T04:21:23.000Z,17.50
2018-09-20T04:23:51.300Z,17.00
2018-09-20T04:26:19.381Z,13.97
2018-09-20T04:28:47.481Z,18.23
2018-09-20T04:31:15.769Z,18.10
2018-09-20T04:33:44.007Z,15.83
2018-09-20T04:36:13.120Z,19.70
2018-09-20T04:38:41.272Z,16.60
2018-09-20T04:41:09.647Z,17.40
2018-09-20T04:43:37.809Z,16.27
2018-09-20T04:46:06.175Z,20.10
2018-09-20T04:48:34.514Z,17.33
2018-09-20T04:51:02.744Z,16.70
2018-09-20T04:53:31.186Z,16.47
2018-09-20T04:55:59.591Z,17.03
2018-09-20T04:58:28.171Z,21.03
2018-09-20T05:00:56.632Z,17.70
2018-09-20T05:03:24.938Z,16.93
2018-09-20T05:05:53.117Z,17.40
2018-09-20T05:08:21.440Z,19.40
2018-09-20T05:10:49.573Z,15.97
2018-09-20T05:13:17.741Z,17.80
2018-09-20T05:15:45.916Z,16.53
2018-09-20T05:18:14.057Z,18.03
2018-09-20T05:20:42.205Z,16.03
2018-09-20T05:23:10.665Z,17.27
2018-09-20T05:25:39.147Z,15.53
2018-09-20T05:28:07.610Z,14.80
2018-09-20T05:30:35.992Z,16.23
2018-09-20T05:33:04.178Z,16.70
2018-09-20T05:35:32.702Z,13.87
2018-09-20T05:38:00.778Z,17.50
2018-09-20T05:40:29.044Z,13.77
2018-09-20T05:42:57.334Z,15.33
2018-09-20T05:45:25.575Z,17.07
2018-09-20T05:47:53.715Z,15.83
2018-09-20T05:50:22.514Z,15.83
2018-09-20T05:52:50.695Z,15.30
2018-09-20T05:55:19.274Z,21.40
2018-09-20T05:57:47.413Z,11.07
2018-09-20T06:00:15.634Z,12.80
2018-09-20T06:02:43.899Z,12.07
2018-09-20T06:05:12.229Z,12.03
2018-09-20T06:07:40.588Z,16.77
2018-09-20T06:10:08.997Z,13.20
2018-09-20T06:12:37.226Z,11.63
2018-09-20T06:15:05.892Z,14.10
2018-09-20T06:17:34.451Z,12.53
2018-09-20T06:20:03.025Z,15.73
2018-09-20T06:22:31.663Z,13.77
2018-09-20T06:24:59.901Z,15.40
2018-09-20T06:27:28.298Z,15.67
2018-09-20T06:29:56.479Z,14.97
2018-09-20T06:32:24.985Z,14.40
2018-09-20T06:34:53.320Z,15.53
2018-09-20T06:37:21.829Z,22.00
2018-09-20T06:39:49.953Z,13.47
2018-09-20T06:42:18.142Z,13.53
2018-09-20T06:44:46.573Z,10.60
2018-09-20T06:47:14.722Z,12.03
2018-09-20T06:49:43.180Z,11.30
2018-09-20T06:52:11.555Z,12.27
2018-09-20T06:54:40.007Z,11.53
2018-09-20T06:57:08.200Z,14.77
2018-09-20T06:59:36.667Z,12.03
2018-09-20T07:02:04.979Z,12.00
2018-09-20T07:04:33.119Z,12.37
2018-09-20T07:07:01.661Z,13.90
2018-09-20T07:09:29.804Z,11.97
2018-09-20T07:11:58.112Z,10.30
2018-09-20T07:14:26.269Z,16.93
2018-09-20T07:16:54.458Z,11.80
2018-09-20T07:19:22.875Z,13.90
2018-09-20T07:21:51.012Z,15.43
2018-09-20T07:24:19.536Z,10.23
2018-09-20T07:26:47.685Z,11.73
2018-09-20T07:29:15.781Z,9.80
2018-09-20T07:31:44.153Z,16.07
2018-09-20T07:34:12.445Z,13.13
2018-09-20T07:36:40.650Z,12.00
2018-09-20T07:39:09.634Z,12.70
2018-09-20T07:41:38.535Z,13.73
2018-09-20T07:44:06.895Z,12.83
2018-09-20T07:46:35.082Z,11.90
2018-09-20T07:49:03.600Z,14.07
2018-09-20T07:51:31.922Z,13.83
2018-09-20T07:54:00.367Z,11.93
2018-09-20T07:56:28.500Z,13.20
2018-09-20T07:58:56.734Z,13.80
2018-09-20T08:01:25.221Z,14.97
2018-09-20T08:03:53.628Z,14.70
2018-09-20T08:06:21.947Z,12.60
2018-09-20T08:08:50.139Z,12.20
2018-09-20T08:11:18.347Z,13.93
2018-09-20T08:13:47.251Z,10.17
2018-09-20T08:16:15.391Z,10.33
2018-09-20T08:18:44.256Z,10.47
2018-09-20T08:21:12.552Z,11.93
2018-09-20T08:23:40.787Z,11.43
2018-09-20T08:26:09.088Z,10.17
2018-09-20T08:28:37.237Z,10.80
2018-09-20T08:31:05.802Z,9.13
2018-09-20T08:33:34.084Z,9.87
2018-09-20T08:36:02.262Z,8.50
2018-09-20T08:38:30.548Z,9.18
2018-09-20T08:40:58.700Z,9.53
2018-09-20T08:43:26.998Z,9.38
2018-09-20T08:45:55.409Z,10.78
2018-09-20T08:48:23.549Z,9.45
2018-09-20T08:50:51.686Z,10.00
2018-09-20T08:53:19.917Z,12.50
2018-09-20T08:55:48.190Z,10.80
2018-09-20T08:58:16.446Z,9.20
2018-09-20T09:00:44.583Z,8.13
2018-09-20T09:03:12.718Z,7.60
2018-09-20T09:05:40.848Z,12.93
2018-09-20T09:08:09.286Z,8.38
2018-09-20T09:10:37.378Z,11.12
2018-09-20T09:13:05.772Z,10.28
2018-09-20T09:15:33.908Z,8.28
2018-09-20T09:18:02.220Z,11.18
2018-09-20T09:20:30.510Z,7.30
2018-09-20T09:22:58.919Z,7.58
2018-09-20T09:25:27.127Z,8.33
2018-09-20T09:27:55.607Z,8.20
2018-09-20T09:30:23.739Z,10.58
2018-09-20T09:32:51.898Z,30.17
2018-09-20T09:35:20.048Z,9.55
2018-09-20T09:37:48.195Z,7.03
2018-09-20T09:40:16.725Z,7.33
2018-09-20T09:42:44.961Z,7.28
2018-09-20T09:45:13.080Z,7.70
2018-09-20T09:47:41.430Z,8.03
2018-09-20T09:50:09.705Z,9.23
2018-09-20T09:52:37.984Z,6.92
2018-09-20T09:55:06.462Z,8.83
2018-09-20T09:57:34.529Z,10.03
2018-09-20T10:00:03.165Z,7.05
2018-09-20T10:02:31.696Z,10.08
2018-09-20T10:04:59.874Z,12.03
2018-09-20T10:07:28.239Z,8.05
2018-09-20T10:09:56.637Z,6.95
2018-09-20T10:12:24.858Z,7.90
2018-09-20T10:14:53.014Z,11.35
2018-09-20T10:17:21.259Z,10.72
2018-09-20T10:19:49.557Z,7.12
2018-09-20T10:22:17.891Z,6.95
2018-09-20T10:24:46.099Z,6.78
2018-09-20T10:27:14.496Z,10.85
2018-09-20T10:29:42.647Z,6.58
2018-09-20T10:32:10.842Z,6.70
2018-09-20T10:34:39.027Z,7.30
2018-09-20T10:37:07.352Z,7.47
2018-09-20T10:39:35.681Z,7.05
2018-09-20T10:42:03.940Z,7.15
2018-09-20T10:44:32.096Z,8.23
2018-09-20T10:47:00.528Z,7.58
2018-09-20T10:49:28.934Z,6.67
2018-09-20T10:51:57.161Z,6.58
2018-09-20T10:54:25.681Z,9.35
2018-09-20T10:56:53.913Z,10.15
2018-09-20T10:59:22.173Z,7.45
2018-09-20T11:01:50.628Z,9.55
2018-09-20T11:04:18.847Z,8.90
2018-09-20T11:06:47.057Z,11.55
2018-09-20T11:09:15.296Z,9.68
2018-09-20T11:11:43.381Z,8.57
2018-09-20T11:14:11.518Z,7.60
2018-09-20T11:16:39.828Z,10.30
2018-09-20T11:19:08.254Z,8.10
2018-09-20T11:21:36.519Z,9.27
2018-09-20T11:24:04.707Z,9.83
2018-09-20T11:26:32.819Z,11.03
2018-09-20T11:29:00.946Z,9.27
2018-09-20T11:31:29.202Z,8.63
2018-09-20T11:33:57.639Z,10.57
2018-09-20T11:36:25.879Z,9.87
2018-09-20T11:38:54.200Z,9.50
2018-09-20T11:41:22.743Z,15.67
2018-09-20T11:43:51.022Z,14.40
2018-09-20T11:46:20.281Z,8.20
2018-09-20T11:48:48.992Z,9.23
2018-09-20T11:51:17.139Z,10.53
2018-09-20T11:53:45.498Z,9.40
2018-09-20T11:56:13.916Z,9.43
2018-09-20T11:58:42.389Z,9.63
2018-09-20T12:01:10.554Z,7.23
2018-09-20T12:03:38.813Z,10.17
2018-09-20T12:06:06.894Z,8.43
2018-09-20T12:08:34.989Z,10.03
2018-09-20T12:11:03.517Z,8.43
2018-09-20T12:13:31.889Z,7.83
2018-09-20T12:16:00.245Z,11.50
2018-09-20T12:18:28.521Z,8.00
2018-09-20T12:20:56.745Z,8.87
2018-09-20T12:23:25.005Z,9.80
2018-09-20T12:25:53.283Z,7.20
2018-09-20T12:28:21.766Z,7.60
2018-09-20T12:30:50.034Z,9.17
2018-09-20T12:33:18.288Z,8.50
2018-09-20T12:35:46.496Z,7.97
2018-09-20T12:38:14.779Z,7.60
2018-09-20T12:40:43.059Z,8.23
2018-09-20T12:43:11.345Z,8.13
2018-09-20T12:45:39.479Z,9.20
2018-09-20T12:48:08.180Z,7.77
2018-09-20T12:50:36.676Z,6.67
2018-09-20T12:53:05.183Z,6.70
2018-09-20T12:55:33.492Z,6.40
2018-09-20T12:58:01.775Z,11.80
2018-09-20T13:00:30.028Z,12.10
2018-09-20T13:02:58.436Z,6.90
2018-09-20T13:05:26.808Z,8.87
2018-09-20T13:07:55.044Z,7.33
2018-09-20T13:10:23.258Z,7.60
2018-09-20T13:12:51.459Z,6.93
2018-09-20T13:15:19.669Z,7.60
2018-09-20T13:17:48.040Z,9.30
2018-09-20T13:20:16.248Z,9.93
2018-09-20T13:22:44.346Z,12.03
2018-09-20T13:25:12.955Z,8.67
2018-09-20T13:27:41.375Z,7.67
2018-09-20T13:30:09.905Z,6.13
2018-09-20T13:32:38.458Z,11.07
2018-09-20T13:35:06.698Z,9.37
2018-09-20T13:37:35.354Z,6.60
2018-09-20T13:40:03.818Z,6.10
2018-09-20T13:42:32.038Z,8.43
2018-09-20T13:45:00.240Z,6.67
2018-09-20T13:47:28.341Z,6.80
2018-09-20T13:49:56.549Z,8.57
2018-09-20T13:52:24.738Z,7.07
2018-09-20T13:54:52.986Z,8.87
2018-09-20T13:57:21.198Z,9.00
2018-09-20T14:00:15.882Z,9.13
2018-09-20T14:03:12.697Z,7.30
2018-09-20T14:05:42.531Z,5.90
2018-09-20T14:08:10.758Z,7.17
2018-09-20T14:10:39.053Z,6.10
2018-09-20T14:13:07.358Z,7.03
2018-09-20T14:15:35.730Z,8.20
2018-09-20T14:18:04.383Z,8.73
2018-09-20T14:20:32.855Z,14.83
2018-09-20T14:23:00.967Z,14.17
2018-09-20T14:25:29.231Z,13.13
2018-09-20T14:27:57.521Z,6.80
2018-09-20T14:30:25.762Z,10.60
2018-09-20T14:32:53.964Z,6.07
2018-09-20T14:35:22.435Z,7.00
2018-09-20T14:37:50.590Z,6.13
2018-09-20T14:40:19.477Z,8.93
2018-09-20T14:42:47.879Z,6.43
2018-09-20T14:45:16.002Z,6.27
2018-09-20T14:47:44.108Z,5.63
2018-09-20T14:50:12.426Z,6.37
2018-09-20T14:52:40.825Z,5.73
2018-09-20T14:55:08.923Z,6.43
2018-09-20T14:57:37.110Z,6.30
2018-09-20T15:00:05.310Z,6.83
2018-09-20T15:02:33.807Z,4.90
2018-09-20T15:05:01.959Z,5.93
2018-09-20T15:07:30.090Z,5.33
2018-09-20T15:09:58.190Z,4.90
2018-09-20T15:12:26.354Z,5.30
2018-09-20T15:14:54.671Z,4.80
2018-09-20T15:17:23.061Z,4.47
2018-09-20T15:19:51.455Z,7.43
2018-09-20T15:22:19.683Z,9.20
2018-09-20T15:24:47.987Z,10.23
2018-09-20T15:27:16.283Z,28.43
2018-09-20T15:29:44.901Z,9.43
2018-09-20T15:32:13.153Z,6.47
2018-09-20T15:34:41.452Z,6.70
2018-09-20T15:37:09.809Z,6.70
2018-09-20T15:39:38.353Z,6.40
2018-09-20T15:42:06.557Z,5.17
2018-09-20T15:44:34.970Z,5.67
2018-09-20T15:47:03.405Z,4.60
2018-09-20T15:49:32.089Z,5.43
2018-09-20T15:52:00.857Z,5.43
2018-09-20T15:54:29.118Z,6.30
2018-09-20T15:56:57.286Z,5.27
2018-09-20T15:59:26.943Z,4.90
2018-09-20T16:01:55.066Z,4.57
2018-09-20T16:04:23.326Z,9.57
2018-09-20T16:06:52.055Z,5.20
2018-09-20T16:09:20.214Z,5.37
2018-09-20T16:11:48.487Z,8.97
2018-09-20T16:14:16.743Z,7.00
2018-09-20T16:16:45.179Z,5.20
2018-09-20T16:19:13.387Z,8.57
2018-09-20T16:21:42.417Z,5.93
2018-09-20T16:24:11.251Z,6.00
2018-09-20T16:26:40.375Z,6.73
2018-09-20T16:29:24.115Z,7.17
2018-09-20T16:32:29.381Z,6.13
2018-09-20T16:35:49.368Z,8.30
2018-09-20T16:38:58.453Z,6.47
2018-09-20T16:41:31.730Z,6.20
2018-09-20T16:44:00.617Z,6.17
2018-09-20T16:46:29.325Z,8.27
2018-09-20T16:48:59.774Z,5.20
2018-09-20T16:51:28.730Z,7.20
2018-09-20T16:53:58.327Z,6.80
2018-09-20T16:56:28.388Z,7.47
2018-09-20T16:58:58.473Z,4.73
2018-09-20T17:01:27.369Z,7.50
2018-09-20T17:03:57.280Z,5.30
2018-09-20T17:06:26.849Z,8.37
2018-09-20T17:08:56.548Z,5.43
2018-09-20T17:11:25.794Z,5.30
2018-09-20T17:13:54.600Z,6.80
2018-09-20T17:16:42.159Z,6.27
2018-09-20T17:19:10.773Z,8.63
2018-09-20T17:21:42.191Z,5.17
2018-09-20T17:24:11.296Z,18.50
2018-09-20T17:26:39.624Z,10.77
2018-09-20T17:29:08.689Z,10.67
2018-09-20T17:31:37.837Z,6.53
2018-09-20T17:34:06.556Z,5.70
2018-09-20T17:36:35.500Z,11.80
2018-09-20T17:39:07.233Z,6.57
2018-09-20T17:41:37.715Z,7.07
2018-09-20T17:44:07.249Z,9.93
2018-09-20T17:46:36.140Z,8.30
2018-09-20T17:49:05.120Z,9.00
2018-09-20T17:51:34.602Z,10.20
2018-09-20T17:54:03.300Z,12.50
2018-09-20T17:56:32.301Z,10.63
2018-09-20T17:59:01.462Z,7.63
2018-09-20T18:01:30.398Z,6.90
2018-09-20T18:03:58.585Z,9.97
2018-09-20T18:06:26.822Z,9.13
2018-09-20T18:08:55.202Z,9.53
2018-09-20T18:11:23.520Z,9.37
2018-09-20T18:13:51.917Z,11.37
2018-09-20T18:16:20.094Z,8.53
2018-09-20T18:18:48.224Z,12.60
2018-09-20T18:21:16.686Z,9.37
2018-09-20T18:23:45.244Z,11.57
2018-09-20T18:26:14.170Z,7.57
2018-09-20T18:28:42.492Z,8.07
2018-09-20T18:31:10.843Z,8.73
2018-09-20T18:33:39.340Z,7.17
2018-09-20T18:36:07.524Z,7.33
2018-09-20T18:38:35.829Z,9.83
2018-09-20T18:41:04.437Z,9.50
2018-09-20T18:43:33.231Z,9.90
2018-09-20T18:46:01.678Z,11.70
2018-09-20T18:48:30.068Z,10.27
2018-09-20T18:50:59.345Z,12.10
2018-09-20T18:53:27.823Z,15.47
2018-09-20T18:55:56.008Z,11.77
2018-09-20T18:58:24.555Z,12.50
2018-09-20T19:00:53.293Z,12.23
2018-09-20T19:03:22.564Z,10.80
2018-09-20T19:05:50.905Z,10.00
2018-09-20T19:08:19.802Z,13.47
2018-09-20T19:10:48.192Z,12.80
2018-09-20T19:13:16.512Z,10.93
2018-09-20T19:15:44.879Z,11.07
2018-09-20T19:18:13.573Z,8.83
2018-09-20T19:20:44.377Z,10.23
2018-09-20T19:23:12.858Z,14.17
2018-09-20T19:25:41.121Z,11.63
2018-09-20T19:28:10.632Z,11.83
2018-09-20T19:30:39.067Z,11.93
2018-09-20T19:33:07.908Z,12.73
2018-09-20T19:35:36.139Z,12.90
2018-09-20T19:38:04.593Z,11.43
2018-09-20T19:40:32.960Z,10.50
2018-09-20T19:43:01.184Z,11.97
2018-09-20T19:45:29.598Z,14.43
2018-09-20T19:48:01.740Z,14.10
2018-09-20T19:50:30.380Z,10.23
2018-09-20T19:52:58.817Z,10.50
2018-09-20T19:55:27.197Z,14.90
2018-09-20T19:57:55.384Z,11.03
2018-09-20T20:00:23.807Z,12.50
2018-09-20T20:02:52.274Z,8.73
2018-09-20T20:05:20.485Z,12.10
2018-09-20T20:07:48.701Z,12.57
2018-09-20T20:10:17.117Z,9.47
2018-09-20T20:12:45.991Z,14.73
2018-09-20T20:15:14.589Z,10.50
2018-09-20T20:18:15.964Z,10.43
2018-09-20T20:20:44.717Z,11.40
2018-09-20T20:23:13.388Z,12.47
2018-09-20T20:25:41.636Z,11.53
2018-09-20T20:28:09.900Z,12.10
2018-09-20T20:30:38.274Z,11.10
2018-09-20T20:33:07.205Z,9.20
2018-09-20T20:35:35.622Z,10.87
2018-09-20T20:38:04.043Z,11.27
2018-09-20T20:40:32.286Z,11.23
2018-09-20T20:43:00.496Z,14.17
2018-09-20T20:45:28.716Z,12.97
2018-09-20T20:47:56.840Z,14.73
2018-09-20T20:50:25.234Z,7.83
2018-09-20T20:52:53.375Z,13.07
2018-09-20T20:55:21.540Z,10.10
2018-09-20T20:57:49.746Z,11.47
2018-09-20T21:00:18.343Z,9.47
2018-09-20T21:02:46.596Z,6.97
2018-09-20T21:05:15.413Z,8.50
2018-09-20T21:07:43.822Z,9.17
2018-09-20T21:10:17.054Z,8.40
2018-09-20T21:12:45.145Z,10.07
2018-09-20T21:15:13.397Z,8.90
2018-09-20T21:17:41.997Z,12.77
2018-09-20T21:20:10.450Z,11.60
2018-09-20T21:22:38.517Z,9.97
2018-09-20T21:25:06.912Z,10.17
2018-09-20T21:27:35.338Z,10.87
2018-09-20T21:30:03.819Z,13.87
2018-09-20T21:32:32.352Z,11.80
2018-09-20T21:35:00.931Z,10.73
2018-09-20T21:37:29.263Z,11.70
2018-09-20T21:39:58.687Z,11.63
2018-09-20T21:42:27.039Z,9.90
2018-09-20T21:44:55.472Z,10.77
2018-09-20T21:47:23.765Z,8.77
2018-09-20T21:49:52.255Z,10.57
2018-09-20T21:52:20.448Z,10.90
2018-09-20T21:54:48.858Z,11.13
2018-09-20T21:57:17.294Z,11.27
2018-09-20T21:59:45.681Z,10.63
2018-09-20T22:02:16.501Z,10.17
2018-09-20T22:04:44.948Z,22.10
2018-09-20T22:07:13.394Z,10.37
2018-09-20T22:09:42.008Z,10.70
2018-09-20T22:12:10.595Z,12.20
2018-09-20T22:14:38.705Z,11.43
2018-09-20T22:17:07.180Z,13.70
2018-09-20T22:19:35.532Z,11.40
2018-09-20T22:22:04.054Z,11.60
2018-09-20T22:24:32.378Z,10.77
2018-09-20T22:27:00.995Z,10.33
2018-09-20T22:29:29.563Z,10.93
2018-09-20T22:31:57.783Z,11.40
2018-09-20T22:34:26.057Z,11.20
2018-09-20T22:36:54.622Z,14.07
2018-09-20T22:39:22.924Z,11.07
2018-09-20T22:41:51.199Z,11.27
2018-09-20T22:44:19.422Z,10.87
2018-09-20T22:46:47.971Z,12.53
2018-09-20T22:49:16.116Z,9.93
2018-09-20T22:51:44.409Z,12.47
2018-09-20T22:54:12.857Z,11.97
2018-09-20T22:56:41.024Z,12.33
2018-09-20T22:59:09.456Z,13.70
2018-09-20T23:01:37.890Z,13.10
2018-09-20T23:04:06.141Z,10.80
2018-09-20T23:06:34.827Z,13.50
2018-09-20T23:09:04.598Z,13.33
2018-09-20T23:11:33.249Z,15.80
2018-09-20T23:14:01.710Z,14.10
2018-09-20T23:16:30.018Z,14.87
2018-09-20T23:18:58.462Z,16.00
2018-09-20T23:21:26.634Z,13.37
2018-09-20T23:23:54.745Z,12.87
2018-09-20T23:26:22.979Z,13.47
2018-09-20T23:28:51.161Z,16.40
2018-09-20T23:31:19.308Z,15.13
2018-09-20T23:33:48.011Z,15.40
2018-09-20T23:36:16.251Z,14.27
2018-09-20T23:38:44.343Z,13.80
2018-09-20T23:41:12.461Z,14.13
2018-09-20T23:43:41.052Z,14.67
2018-09-20T23:46:09.220Z,14.40
2018-09-20T23:48:37.323Z,14.20
2018-09-20T23:51:05.780Z,12.03
2018-09-20T23:53:33.880Z,13.87
2018-09-20T23:56:02.061Z,14.33
2018-09-20T23:58:30.525Z,14.20
